Terminal Aerodrome Forecast
Issued by NWS

Home | Current Version | Previous Version | Text Only | Print | Product List | Glossary On
Versions: 1 2 3 4 5 6 7 8 9 10 11 12
000
FTUS46 KMTR 291100
TAFSNS
TAF
KSNS 291127Z 2912/3012 12005KT P6SM FEW200
     FM292100 29008KT P6SM SKC
     FM300400 VRB03KT P6SM SKC
     FM301000 VRB03KT P6SM BKN007=

USA.gov is the U.S. government's official web portal to all federal, state and local government web resources and services.